sensor_id;sensor_type;location;lat;lon;timestamp;pressure;altitude;pressure_sealevel;temperature;humidity
43436;BME280;36399;51.444;-2.018;2023-04-06T06:17:22;100522.50;;;8.53;100.00
43436;BME280;36399;51.444;-2.018;2023-04-06T08:27:37;100506.94;;;9.96;100.00
43436;BME280;36399;51.444;-2.018;2023-04-06T08:30:04;100503.56;;;10.05;100.00
43436;BME280;36399;51.444;-2.018;2023-04-06T08:32:30;100508.09;;;10.17;100.00
43436;BME280;36399;51.444;-2.018;2023-04-06T08:34:56;100511.78;;;10.26;100.00
43436;BME280;36399;51.444;-2.018;2023-04-06T08:37:22;100513.59;;;10.32;100.00
43436;BME280;36399;51.444;-2.018;2023-04-06T08:39:51;100513.00;;;10.48;100.00
43436;BME280;36399;51.444;-2.018;2023-04-06T08:42:20;100505.97;;;10.46;100.00
43436;BME280;36399;51.444;-2.018;2023-04-06T08:44:51;100508.84;;;10.65;100.00
43436;BME280;36399;51.444;-2.018;2023-04-06T08:47:18;100501.03;;;10.70;100.00
43436;BME280;36399;51.444;-2.018;2023-04-06T08:49:46;100495.88;;;10.79;100.00
43436;BME280;36399;51.444;-2.018;2023-04-06T08:52:13;100500.53;;;11.00;100.00
43436;BME280;36399;51.444;-2.018;2023-04-06T08:54:40;100508.41;;;11.00;100.00
43436;BME280;36399;51.444;-2.018;2023-04-06T08:57:07;100504.38;;;11.32;100.00
43436;BME280;36399;51.444;-2.018;2023-04-06T08:59:33;100503.59;;;11.41;100.00
43436;BME280;36399;51.444;-2.018;2023-04-06T09:48:50;100467.09;;;13.23;100.00
43436;BME280;36399;51.444;-2.018;2023-04-06T10:26:19;100466.00;;;12.67;100.00
43436;BME280;36399;51.444;-2.018;2023-04-06T10:31:26;100466.81;;;12.53;100.00
43436;BME280;36399;51.444;-2.018;2023-04-06T10:36:39;100462.63;;;13.06;100.00
43436;BME280;36399;51.444;-2.018;2023-04-06T10:39:07;100472.38;;;13.25;100.00
43436;BME280;36399;51.444;-2.018;2023-04-06T10:53:00;100454.78;;;13.24;100.00
43436;BME280;36399;51.444;-2.018;2023-04-06T10:55:28;100461.69;;;12.96;100.00
43436;BME280;36399;51.444;-2.018;2023-04-06T10:57:58;100466.03;;;12.82;100.00
43436;BME280;36399;51.444;-2.018;2023-04-06T11:00:24;100466.94;;;12.87;100.00
43436;BME280;36399;51.444;-2.018;2023-04-06T11:02:50;100468.91;;;13.81;100.00
43436;BME280;36399;51.444;-2.018;2023-04-06T11:05:16;100463.41;;;14.86;100.00
43436;BME280;36399;51.444;-2.018;2023-04-06T11:07:44;100463.19;;;15.32;100.00
43436;BME280;36399;51.444;-2.018;2023-04-06T11:10:10;100467.50;;;15.45;100.00
43436;BME280;36399;51.444;-2.018;2023-04-06T11:18:03;100462.97;;;17.28;100.00
43436;BME280;36399;51.444;-2.018;2023-04-06T11:20:30;100468.44;;;17.16;100.00
43436;BME280;36399;51.444;-2.018;2023-04-06T11:22:58;100464.31;;;17.56;100.00
43436;BME280;36399;51.444;-2.018;2023-04-06T11:25:25;100468.16;;;17.37;100.00
43436;BME280;36399;51.444;-2.018;2023-04-06T11:27:56;100481.81;;;17.08;100.00
43436;BME280;36399;51.444;-2.018;2023-04-06T11:30:22;100483.47;;;17.80;100.00
43436;BME280;36399;51.444;-2.018;2023-04-06T11:32:48;100491.63;;;17.01;100.00
43436;BME280;36399;51.444;-2.018;2023-04-06T11:35:22;100496.03;;;16.21;100.00
43436;BME280;36399;51.444;-2.018;2023-04-06T11:37:49;100509.16;;;15.00;100.00
43436;BME280;36399;51.444;-2.018;2023-04-06T11:40:20;100537.19;;;12.82;100.00
43436;BME280;36399;51.444;-2.018;2023-04-06T11:42:56;100542.47;;;11.73;100.00
43436;BME280;36399;51.444;-2.018;2023-04-06T11:45:22;100543.13;;;10.76;100.00
43436;BME280;36399;51.444;-2.018;2023-04-06T11:48:00;100555.09;;;10.56;100.00
43436;BME280;36399;51.444;-2.018;2023-04-06T11:50:32;100561.44;;;10.71;100.00
43436;BME280;36399;51.444;-2.018;2023-04-06T11:53:01;100567.16;;;10.43;100.00
43436;BME280;36399;51.444;-2.018;2023-04-06T11:55:27;100566.72;;;10.74;100.00
43436;BME280;36399;51.444;-2.018;2023-04-06T11:57:53;100554.84;;;11.01;100.00
43436;BME280;36399;51.444;-2.018;2023-04-06T12:00:20;100565.50;;;11.13;100.00
43436;BME280;36399;51.444;-2.018;2023-04-06T12:02:47;100566.06;;;11.62;100.00
43436;BME280;36399;51.444;-2.018;2023-04-06T12:05:14;100563.63;;;11.82;100.00
43436;BME280;36399;51.444;-2.018;2023-04-06T12:07:40;100559.38;;;11.94;100.00
43436;BME280;36399;51.444;-2.018;2023-04-06T12:10:06;100557.59;;;11.93;100.00
43436;BME280;36399;51.444;-2.018;2023-04-06T12:12:32;100545.31;;;11.92;100.00
43436;BME280;36399;51.444;-2.018;2023-04-06T12:14:58;100550.59;;;11.95;100.00
43436;BME280;36399;51.444;-2.018;2023-04-06T12:17:25;100552.25;;;11.84;100.00
43436;BME280;36399;51.444;-2.018;2023-04-06T12:19:51;100568.50;;;11.45;100.00
43436;BME280;36399;51.444;-2.018;2023-04-06T12:24:53;100597.25;;;10.13;100.00
43436;BME280;36399;51.444;-2.018;2023-04-06T12:29:57;100615.03;;;8.94;100.00
43436;BME280;36399;51.444;-2.018;2023-04-06T12:32:24;100601.00;;;8.91;100.00
43436;BME280;36399;51.444;-2.018;2023-04-06T12:37:29;100592.38;;;9.38;100.00
43436;BME280;36399;51.444;-2.018;2023-04-06T13:55:58;100551.59;;;14.24;100.00
43436;BME280;36399;51.444;-2.018;2023-04-06T14:55:23;100576.31;;;16.29;100.00
43436;BME280;36399;51.444;-2.018;2023-04-06T15:37:12;100569.75;;;17.47;100.00
43436;BME280;36399;51.444;-2.018;2023-04-06T15:39:41;100581.31;;;16.60;100.00
43436;BME280;36399;51.444;-2.018;2023-04-06T15:42:11;100572.47;;;15.40;100.00
43436;BME280;36399;51.444;-2.018;2023-04-06T15:44:37;100574.50;;;14.48;100.00
43436;BME280;36399;51.444;-2.018;2023-04-06T15:49:39;100612.91;;;11.22;100.00
43436;BME280;36399;51.444;-2.018;2023-04-06T15:52:05;100622.94;;;10.31;100.00
43436;BME280;36399;51.444;-2.018;2023-04-06T15:57:07;100640.44;;;10.87;100.00
43436;BME280;36399;51.444;-2.018;2023-04-06T16:05:12;100660.34;;;13.15;100.00
43436;BME280;36399;51.444;-2.018;2023-04-06T16:07:45;100674.59;;;12.29;100.00
43436;BME280;36399;51.444;-2.018;2023-04-06T16:38:30;100748.16;;;9.15;100.00
43436;BME280;36399;51.444;-2.018;2023-04-06T16:41:01;100747.06;;;9.05;100.00
43436;BME280;36399;51.444;-2.018;2023-04-06T18:09:53;100844.69;;;8.34;100.00
43436;BME280;36399;51.444;-2.018;2023-04-06T18:12:22;100856.91;;;8.35;100.00
43436;BME280;36399;51.444;-2.018;2023-04-06T18:14:51;100856.91;;;8.35;100.00
43436;BME280;36399;51.444;-2.018;2023-04-06T18:17:18;100862.75;;;8.28;100.00
43436;BME280;36399;51.444;-2.018;2023-04-06T18:19:47;100867.88;;;8.23;100.00
43436;BME280;36399;51.444;-2.018;2023-04-06T18:22:16;100867.72;;;8.18;100.00
43436;BME280;36399;51.444;-2.018;2023-04-06T18:24:43;100872.03;;;8.16;100.00
43436;BME280;36399;51.444;-2.018;2023-04-06T18:27:20;100873.59;;;8.10;100.00
43436;BME280;36399;51.444;-2.018;2023-04-06T18:29:49;100873.47;;;8.05;100.00
43436;BME280;36399;51.444;-2.018;2023-04-06T18:32:18;100871.59;;;8.01;100.00
43436;BME280;36399;51.444;-2.018;2023-04-06T18:37:34;100884.34;;;7.90;100.00
43436;BME280;36399;51.444;-2.018;2023-04-06T18:40:03;100889.44;;;7.86;100.00
43436;BME280;36399;51.444;-2.018;2023-04-06T18:42:29;100891.97;;;7.83;100.00
43436;BME280;36399;51.444;-2.018;2023-04-06T18:45:00;100895.28;;;7.79;100.00
43436;BME280;36399;51.444;-2.018;2023-04-06T18:47:27;100906.53;;;7.76;100.00
43436;BME280;36399;51.444;-2.018;2023-04-06T18:49:56;100910.78;;;7.73;100.00
43436;BME280;36399;51.444;-2.018;2023-04-06T18:52:22;100919.66;;;7.78;100.00
43436;BME280;36399;51.444;-2.018;2023-04-06T18:54:54;100912.56;;;7.74;100.00
43436;BME280;36399;51.444;-2.018;2023-04-06T18:57:20;100918.53;;;7.70;100.00
43436;BME280;36399;51.444;-2.018;2023-04-06T18:59:52;100915.81;;;7.67;100.00
43436;BME280;36399;51.444;-2.018;2023-04-06T19:02:24;100916.66;;;7.66;100.00
43436;BME280;36399;51.444;-2.018;2023-04-06T19:04:55;100928.94;;;7.68;100.00
43436;BME280;36399;51.444;-2.018;2023-04-06T19:21:40;100947.97;;;7.37;100.00
43436;BME280;36399;51.444;-2.018;2023-04-06T19:32:13;100968.00;;;7.13;100.00
43436;BME280;36399;51.444;-2.018;2023-04-06T19:34:40;100974.78;;;7.08;100.00
43436;BME280;36399;51.444;-2.018;2023-04-06T19:39:55;100983.22;;;7.01;100.00
43436;BME280;36399;51.444;-2.018;2023-04-06T19:53:09;101004.47;;;6.86;100.00
43436;BME280;36399;51.444;-2.018;2023-04-06T19:55:42;100998.13;;;6.79;100.00
43436;BME280;36399;51.444;-2.018;2023-04-06T20:08:36;101011.75;;;6.48;100.00
43436;BME280;36399;51.444;-2.018;2023-04-06T20:16:47;101009.19;;;5.84;100.00
43436;BME280;36399;51.444;-2.018;2023-04-06T20:32:31;101060.91;;;5.16;100.00
43436;BME280;36399;51.444;-2.018;2023-04-06T20:34:58;101056.75;;;5.19;100.00
43436;BME280;36399;51.444;-2.018;2023-04-06T20:40:14;101071.34;;;5.16;100.00
43436;BME280;36399;51.444;-2.018;2023-04-06T21:09:20;101102.88;;;4.12;100.00
43436;BME280;36399;51.444;-2.018;2023-04-06T21:11:46;101116.53;;;4.08;100.00
43436;BME280;36399;51.444;-2.018;2023-04-06T21:14:14;101123.38;;;4.06;100.00
43436;BME280;36399;51.444;-2.018;2023-04-06T21:16:43;101117.16;;;4.20;100.00
43436;BME280;36399;51.444;-2.018;2023-04-06T21:19:12;101123.19;;;4.19;100.00
43436;BME280;36399;51.444;-2.018;2023-04-06T21:21:38;101124.22;;;4.40;100.00
43436;BME280;36399;51.444;-2.018;2023-04-06T21:24:05;101131.56;;;4.31;100.00
43436;BME280;36399;51.444;-2.018;2023-04-06T21:26:34;101132.91;;;4.41;100.00
43436;BME280;36399;51.444;-2.018;2023-04-06T22:34:27;101186.84;;;3.61;100.00
43436;BME280;36399;51.444;-2.018;2023-04-06T23:25:09;101245.75;;;2.08;100.00
43436;BME280;36399;51.444;-2.018;2023-04-06T23:27:35;101254.72;;;2.00;100.00
43436;BME280;36399;51.444;-2.018;2023-04-06T23:30:01;101257.22;;;1.99;100.00
43436;BME280;36399;51.444;-2.018;2023-04-06T23:32:27;101260.00;;;2.02;100.00
43436;BME280;36399;51.444;-2.018;2023-04-06T23:34:53;101271.53;;;2.07;100.00
43436;BME280;36399;51.444;-2.018;2023-04-06T23:37:19;101274.56;;;2.00;100.00
43436;BME280;36399;51.444;-2.018;2023-04-06T23:39:45;101272.41;;;1.93;100.00
43436;BME280;36399;51.444;-2.018;2023-04-06T23:42:13;101275.97;;;1.95;100.00
43436;BME280;36399;51.444;-2.018;2023-04-06T23:44:38;101280.97;;;1.92;100.00
43436;BME280;36399;51.444;-2.018;2023-04-06T23:47:05;101271.69;;;1.95;100.00
43436;BME280;36399;51.444;-2.018;2023-04-06T23:49:32;101276.13;;;2.11;100.00
43436;BME280;36399;51.444;-2.018;2023-04-06T23:51:58;101282.38;;;2.14;100.00
43436;BME280;36399;51.444;-2.018;2023-04-06T23:54:24;101291.84;;;2.14;100.00
43436;BME280;36399;51.444;-2.018;2023-04-06T23:56:50;101284.97;;;2.14;100.00
43436;BME280;36399;51.444;-2.018;2023-04-06T23:59:17;101285.50;;;2.09;100.00
